Time;durP1;ratioP1;P1;durP2;ratioP2;P2;SDS_P1;SDS_P2;PMS_P1;PMS_P2;Temp;Humidity;BMP_temperature;BMP_pressure;BME280_temperature;BME280_humidity;BME280_pressure;Samples;Min_cycle;Max_cycle;Signal;HPM_P1;HPM_P2
2023/05/14 00:01:55;;;;;;;;;;;;;;;14.36;61.27;100894.13;5322944;32;34867;-77
2023/05/14 00:04:57;;;;;;;;;;;;;;;13.84;63.05;100888.56;5326794;32;34775;-68
2023/05/14 00:07:59;;;;;;;;;;;;;;;13.51;64.44;100881.22;5312679;32;35020;-83
2023/05/14 00:11:01;;;;;;;;;;;;;;;14.75;60.50;100878.22;5335588;32;35743;-69
2023/05/14 00:14:03;;;;;;;;;;;;;;;13.85;63.76;100881.50;5313352;32;36064;-69
2023/05/14 00:17:05;;;;;;;;;;;;;;;13.61;64.18;100880.84;5322437;32;35220;-69
2023/05/14 00:20:07;;;;;;;;;;;;;;;14.27;62.52;100876.06;5327055;32;34369;-86
2023/05/14 00:23:09;;;;;;;;;;;;;;;14.00;63.86;100875.56;5335730;32;34757;-77
2023/05/14 00:26:11;;;;;;;;;;;;;;;15.24;58.77;100865.16;5327285;32;34891;-84
2023/05/14 00:29:13;;;;;;;;;;;;;;;14.73;60.47;100873.91;5327324;32;34685;-76
2023/05/14 00:32:15;;;;;;;;;;;;;;;14.95;59.48;100863.13;5333200;32;38060;-69
2023/05/14 00:35:19;;;;;;;;;;;;;;;14.69;60.13;100875.00;5314709;32;35008;-68
2023/05/14 00:38:22;;;;;;;;;;;;;;;14.40;61.55;100866.63;5327553;32;35074;-68
2023/05/14 00:41:24;;;;;;;;;;;;;;;14.43;60.61;100865.62;5326778;32;34846;-84
2023/05/14 00:44:26;;;;;;;;;;;;;;;13.96;62.51;100866.88;5335875;32;34936;-67
2023/05/14 00:47:28;;;;;;;;;;;;;;;13.74;63.39;100868.78;5313624;32;34933;-69
2023/05/14 00:50:30;;;;;;;;;;;;;;;14.30;62.54;100865.34;5307309;32;34626;-80
2023/05/14 00:53:32;;;;;;;;;;;;;;;14.60;60.83;100857.75;5335058;32;34634;-69
2023/05/14 00:56:34;;;;;;;;;;;;;;;14.14;61.98;100853.78;5326505;32;35514;-69
2023/05/14 00:59:36;;;;;;;;;;;;;;;14.58;60.98;100859.63;5321093;32;34921;-82
2023/05/14 01:02:38;;;;;;;;;;;;;;;15.02;60.15;100857.47;5326586;32;35654;-68
2023/05/14 01:05:41;;;;;;;;;;;;;;;13.97;63.03;100858.03;5334489;32;35080;-83
2023/05/14 01:09:00;;;;;;;;;;;;;;;14.69;61.42;100840.63;5318294;32;34757;-84
2023/05/14 01:12:02;;;;;;;;;;;;;;;14.12;62.26;100845.91;5312940;32;35069;-68
2023/05/14 01:15:08;;;;;;;;;;;;;;;13.69;63.63;100833.78;5336087;32;34322;-70
2023/05/14 01:18:12;;;;;;;;;;;;;;;13.81;63.95;100830.59;5325270;32;34865;-83
2023/05/14 01:21:35;;;;;;;;;;;;;;;14.08;63.79;100829.31;5321460;32;35365;-68
2023/05/14 01:24:37;;;;;;;;;;;;;;;13.61;64.62;100828.88;5310893;32;34776;-68
2023/05/14 01:27:53;;;;;;;;;;;;;;;14.46;62.41;100821.41;5311521;32;35998;-68
2023/05/14 01:31:04;;;;;;;;;;;;;;;14.03;63.84;100817.25;5323693;32;44729;-69
2023/05/14 01:34:06;;;;;;;;;;;;;;;13.96;63.41;100821.97;5325756;32;34726;-68
2023/05/14 01:37:08;;;;;;;;;;;;;;;14.28;62.91;100828.38;5297747;32;34998;-70
2023/05/14 01:40:13;;;;;;;;;;;;;;;13.75;65.47;100817.66;5326299;32;35276;-84
2023/05/14 01:43:15;;;;;;;;;;;;;;;13.37;67.12;100807.03;5329460;32;35506;-69
2023/05/14 01:46:18;;;;;;;;;;;;;;;13.27;68.13;100805.75;5317713;32;45002;-69
2023/05/14 01:49:20;;;;;;;;;;;;;;;13.21;67.86;100801.56;5305110;32;36031;-69
2023/05/14 01:52:22;;;;;;;;;;;;;;;13.47;68.27;100794.28;5335716;32;34263;-67
2023/05/14 01:55:24;;;;;;;;;;;;;;;13.59;67.74;100793.75;5312715;32;35059;-83
2023/05/14 01:58:26;;;;;;;;;;;;;;;13.93;65.83;100789.56;5335063;32;34154;-68
2023/05/14 02:01:28;;;;;;;;;;;;;;;13.17;68.38;100770.06;5325547;32;34455;-83
2023/05/14 02:04:30;;;;;;;;;;;;;;;12.87;70.44;100774.88;5311726;32;35436;-76
2023/05/14 02:07:32;;;;;;;;;;;;;;;13.44;67.05;100768.87;5334640;32;35233;-83
2023/05/14 02:10:34;;;;;;;;;;;;;;;13.32;67.53;100760.62;5312682;32;35116;-83
2023/05/14 02:13:36;;;;;;;;;;;;;;;12.65;69.92;100765.22;5339636;32;34363;-84
2023/05/14 02:16:38;;;;;;;;;;;;;;;13.04;68.98;100763.59;5328475;32;35757;-84
2023/05/14 02:19:40;;;;;;;;;;;;;;;13.94;64.96;100760.41;5336271;32;35536;-69
2023/05/14 02:22:44;;;;;;;;;;;;;;;13.58;64.75;100770.88;5327569;32;34351;-78
2023/05/14 02:25:48;;;;;;;;;;;;;;;14.12;64.19;100771.06;5314385;32;45165;-68
2023/05/14 02:28:50;;;;;;;;;;;;;;;14.07;63.51;100761.53;5334464;32;35398;-83
2023/05/14 02:31:52;;;;;;;;;;;;;;;14.40;62.82;100754.69;5325333;32;34329;-68
2023/05/14 02:34:54;;;;;;;;;;;;;;;13.80;64.71;100761.06;5319036;32;34899;-67
2023/05/14 02:37:58;;;;;;;;;;;;;;;14.06;62.81;100765.13;5312777;32;35585;-68
2023/05/14 02:41:00;;;;;;;;;;;;;;;14.17;62.79;100766.37;5342244;32;35724;-68
2023/05/14 02:44:02;;;;;;;;;;;;;;;14.39;61.50;100755.63;5332703;32;34668;-83
2023/05/14 02:47:04;;;;;;;;;;;;;;;14.20;63.15;100760.97;5317016;32;35519;-69
2023/05/14 02:50:06;;;;;;;;;;;;;;;14.61;61.20;100757.16;5325137;32;35355;-68
2023/05/14 02:53:08;;;;;;;;;;;;;;;14.89;60.67;100750.50;5310829;32;34636;-77
2023/05/14 02:56:10;;;;;;;;;;;;;;;13.47;64.95;100759.97;5320942;32;35057;-68
2023/05/14 02:59:12;;;;;;;;;;;;;;;14.33;62.54;100749.72;5311458;32;35478;-69
2023/05/14 03:02:14;;;;;;;;;;;;;;;14.39;62.44;100756.50;5334358;32;35562;-69
2023/05/14 03:05:17;;;;;;;;;;;;;;;13.72;64.87;100762.34;5311397;32;47874;-68
2023/05/14 03:08:19;;;;;;;;;;;;;;;13.25;66.27;100760.06;5331716;32;34537;-68
2023/05/14 03:11:23;;;;;;;;;;;;;;;14.19;64.25;100743.38;5334345;32;34738;-83
2023/05/14 03:14:25;;;;;;;;;;;;;;;14.42;62.11;100737.81;5325714;32;34733;-68
2023/05/14 03:17:27;;;;;;;;;;;;;;;14.27;62.51;100733.28;5336218;32;35529;-69
2023/05/14 03:20:29;;;;;;;;;;;;;;;13.48;65.20;100738.78;5313136;32;35472;-78
2023/05/14 03:23:33;;;;;;;;;;;;;;;14.62;61.40;100734.25;5340934;32;35785;-83
2023/05/14 03:26:37;;;;;;;;;;;;;;;14.69;60.88;100745.37;5325018;32;37555;-82
2023/05/14 03:29:39;;;;;;;;;;;;;;;15.13;59.24;100751.00;5333441;32;34713;-78
2023/05/14 03:32:41;;;;;;;;;;;;;;;14.40;60.88;100749.41;5335809;32;34677;-85
2023/05/14 03:35:43;;;;;;;;;;;;;;;14.49;61.47;100754.28;5293858;32;35492;-69
2023/05/14 03:38:45;;;;;;;;;;;;;;;14.24;62.75;100749.31;5317798;32;44695;-68
2023/05/14 03:41:47;;;;;;;;;;;;;;;14.13;62.18;100754.25;5326336;32;34905;-83
2023/05/14 03:44:49;;;;;;;;;;;;;;;13.77;62.73;100755.06;5333896;32;35113;-68
2023/05/14 03:47:51;;;;;;;;;;;;;;;14.17;61.93;100754.03;5297858;32;35486;-69
2023/05/14 03:50:53;;;;;;;;;;;;;;;13.69;62.47;100755.41;5321112;32;35573;-83
2023/05/14 03:53:56;;;;;;;;;;;;;;;14.51;59.95;100755.94;5337894;32;35076;-78
2023/05/14 03:56:58;;;;;;;;;;;;;;;13.88;62.35;100750.13;5327161;32;34357;-83
2023/05/14 04:00:00;;;;;;;;;;;;;;;13.82;62.29;100739.84;5335323;32;35626;-78
2023/05/14 04:03:02;;;;;;;;;;;;;;;14.42;60.24;100729.88;5326737;32;35393;-84
2023/05/14 04:06:05;;;;;;;;;;;;;;;14.06;60.72;100729.91;5335084;32;34404;-85
2023/05/14 04:09:07;;;;;;;;;;;;;;;13.51;62.05;100732.47;5322618;32;35320;-86
2023/05/14 04:12:09;;;;;;;;;;;;;;;14.12;60.70;100739.34;5314587;32;35695;-70
2023/05/14 04:15:11;;;;;;;;;;;;;;;14.34;59.76;100742.63;5324401;32;34389;-78
2023/05/14 04:18:13;;;;;;;;;;;;;;;14.39;59.93;100737.97;5301111;32;34844;-77
2023/05/14 04:21:15;;;;;;;;;;;;;;;13.75;61.32;100743.72;5336408;32;34970;-68
2023/05/14 04:24:17;;;;;;;;;;;;;;;13.79;61.05;100737.38;5326059;32;46990;-69
2023/05/14 04:27:19;;;;;;;;;;;;;;;14.03;60.34;100736.19;5333866;32;36518;-69
2023/05/14 04:30:21;;;;;;;;;;;;;;;13.70;61.18;100732.50;5329924;32;34793;-68
2023/05/14 04:33:24;;;;;;;;;;;;;;;13.38;62.43;100728.69;5325672;32;35922;-79
2023/05/14 04:36:26;;;;;;;;;;;;;;;13.99;61.07;100729.34;5312765;32;34863;-68
2023/05/14 04:39:28;;;;;;;;;;;;;;;13.91;60.63;100720.06;5327640;32;35016;-85
2023/05/14 04:42:30;;;;;;;;;;;;;;;14.40;58.66;100721.19;5336498;32;35469;-68
2023/05/14 04:45:31;;;;;;;;;;;;;;;13.74;60.92;100729.66;5326385;32;34899;-83
2023/05/14 04:48:35;;;;;;;;;;;;;;;13.70;61.11;100724.56;5314260;32;34972;-69
2023/05/14 04:51:37;;;;;;;;;;;;;;;13.57;60.93;100728.69;5330755;32;36373;-84
2023/05/14 04:54:39;;;;;;;;;;;;;;;13.69;61.27;100730.78;5326761;32;36053;-69
2023/05/14 04:57:41;;;;;;;;;;;;;;;14.26;59.30;100719.22;5321517;32;34613;-77
2023/05/14 05:00:43;;;;;;;;;;;;;;;13.34;61.84;100725.34;5312341;32;34148;-69
2023/05/14 05:03:45;;;;;;;;;;;;;;;13.86;59.93;100724.72;5336145;32;35773;-73
2023/05/14 05:06:47;;;;;;;;;;;;;;;14.30;58.48;100715.50;5326618;32;35957;-67
2023/05/14 05:09:49;;;;;;;;;;;;;;;14.46;57.75;100712.97;5319358;32;34964;-68
2023/05/14 05:12:51;;;;;;;;;;;;;;;14.22;59.54;100722.94;5331191;32;34614;-68
2023/05/14 05:15:53;;;;;;;;;;;;;;;14.38;59.58;100715.13;5326141;32;35399;-67
2023/05/14 05:18:55;;;;;;;;;;;;;;;14.57;57.74;100721.25;5336350;32;35607;-83
2023/05/14 05:21:57;;;;;;;;;;;;;;;14.61;57.16;100712.19;5312291;32;35711;-67
2023/05/14 05:24:59;;;;;;;;;;;;;;;13.69;60.21;100715.78;5335509;32;35604;-77
2023/05/14 05:28:01;;;;;;;;;;;;;;;14.22;60.18;100703.56;5325584;32;34923;-68
2023/05/14 05:31:03;;;;;;;;;;;;;;;14.12;59.62;100711.13;5333431;32;36080;-82
2023/05/14 05:34:05;;;;;;;;;;;;;;;14.32;58.81;100697.78;5329955;32;35056;-83
2023/05/14 05:37:11;;;;;;;;;;;;;;;13.83;61.19;100707.22;5302852;32;35292;-82
2023/05/14 05:40:14;;;;;;;;;;;;;;;13.95;60.97;100711.91;5321323;32;35362;-67
2023/05/14 05:43:16;;;;;;;;;;;;;;;13.79;61.27;100714.44;5311851;32;44874;-68
2023/05/14 05:46:18;;;;;;;;;;;;;;;14.32;60.07;100703.06;5321838;32;35021;-83
2023/05/14 05:49:20;;;;;;;;;;;;;;;14.57;58.60;100694.78;5291706;32;35120;-68
2023/05/14 05:52:22;;;;;;;;;;;;;;;14.54;59.27;100705.50;5331362;32;35444;-82
2023/05/14 05:55:24;;;;;;;;;;;;;;;14.35;59.22;100704.69;5320315;32;36040;-83
2023/05/14 05:58:26;;;;;;;;;;;;;;;14.38;59.45;100708.97;5312712;32;35635;-83
2023/05/14 06:01:28;;;;;;;;;;;;;;;14.27;60.71;100701.56;5335226;32;36786;-83
2023/05/14 06:04:30;;;;;;;;;;;;;;;14.78;57.43;100700.75;5331773;32;34978;-76
2023/05/14 06:07:32;;;;;;;;;;;;;;;14.74;57.20;100708.94;5335153;32;34817;-84
2023/05/14 06:10:35;;;;;;;;;;;;;;;14.42;59.18;100719.31;5311770;32;33774;-68
2023/05/14 06:13:37;;;;;;;;;;;;;;;14.99;57.32;100719.09;5329890;32;35474;-85
2023/05/14 06:16:38;;;;;;;;;;;;;;;14.67;57.57;100710.19;5333119;32;34610;-83
2023/05/14 06:19:40;;;;;;;;;;;;;;;14.30;59.09;100712.00;5312069;32;34679;-83
2023/05/14 06:22:42;;;;;;;;;;;;;;;14.09;61.06;100720.03;5336441;32;35238;-68
2023/05/14 06:25:44;;;;;;;;;;;;;;;14.55;60.26;100712.50;5324546;32;35484;-84
2023/05/14 06:28:46;;;;;;;;;;;;;;;13.77;61.43;100724.19;5335719;32;45003;-68
2023/05/14 06:31:48;;;;;;;;;;;;;;;14.99;57.57;100714.66;5325206;32;34626;-82
2023/05/14 06:34:50;;;;;;;;;;;;;;;14.97;57.78;100723.62;5314944;32;35348;-69
2023/05/14 06:37:52;;;;;;;;;;;;;;;14.36;59.93;100727.53;5322482;32;35641;-67
2023/05/14 06:40:54;;;;;;;;;;;;;;;14.41;59.63;100720.25;5324724;32;35827;-68
2023/05/14 06:43:56;;;;;;;;;;;;;;;14.02;63.44;100721.25;5335880;32;34493;-68
2023/05/14 06:46:58;;;;;;;;;;;;;;;14.52;60.43;100715.31;5317037;32;35377;-84
2023/05/14 06:50:00;;;;;;;;;;;;;;;14.62;60.35;100702.50;5324049;32;36960;-84
2023/05/14 06:53:02;;;;;;;;;;;;;;;14.24;61.69;100699.09;5325212;32;35513;-83
2023/05/14 06:56:04;;;;;;;;;;;;;;;14.45;61.16;100700.66;5327079;32;34996;-83
2023/05/14 06:59:06;;;;;;;;;;;;;;;14.76;58.85;100694.69;5332870;32;33870;-68
2023/05/14 07:02:08;;;;;;;;;;;;;;;14.82;60.53;100699.69;5324743;32;35552;-83
2023/05/14 07:05:10;;;;;;;;;;;;;;;15.13;59.51;100687.47;5332913;32;35364;-84
2023/05/14 07:08:12;;;;;;;;;;;;;;;15.52;57.02;100681.84;5330178;32;35533;-68
2023/05/14 07:11:14;;;;;;;;;;;;;;;15.14;60.21;100684.75;5323472;32;34488;-83
2023/05/14 07:14:16;;;;;;;;;;;;;;;15.91;56.08;100676.12;5311351;32;45241;-83
2023/05/14 07:17:18;;;;;;;;;;;;;;;14.99;60.08;100677.59;5326450;32;35376;-83
2023/05/14 07:20:22;;;;;;;;;;;;;;;14.78;59.13;100678.75;5334432;32;34815;-83
2023/05/14 07:23:24;;;;;;;;;;;;;;;15.47;57.71;100677.72;5324967;32;35042;-84
2023/05/14 07:26:27;;;;;;;;;;;;;;;15.07;60.45;100670.16;5334556;32;35850;-83
2023/05/14 07:29:30;;;;;;;;;;;;;;;16.07;56.13;100665.50;5310111;32;34664;-84
2023/05/14 07:32:32;;;;;;;;;;;;;;;15.96;57.39;100657.31;5320009;32;35183;-69
2023/05/14 07:35:34;;;;;;;;;;;;;;;15.81;56.73;100658.19;5293525;32;35538;-83
2023/05/14 07:38:36;;;;;;;;;;;;;;;16.46;54.21;100651.72;5302079;32;35149;-68
2023/05/14 07:41:38;;;;;;;;;;;;;;;16.39;54.50;100644.22;5320566;32;34607;-69
2023/05/14 07:44:39;;;;;;;;;;;;;;;16.21;55.02;100652.28;5324202;32;35029;-84
2023/05/14 07:47:41;;;;;;;;;;;;;;;15.32;57.86;100664.34;5319125;32;34387;-83
2023/05/14 07:50:44;;;;;;;;;;;;;;;15.23;58.40;100656.91;5317238;32;33608;-68
2023/05/14 07:53:46;;;;;;;;;;;;;;;15.19;60.10;100655.38;5342591;32;44847;-82
2023/05/14 07:56:48;;;;;;;;;;;;;;;16.18;55.23;100646.34;5327385;32;35317;-68
2023/05/14 07:59:50;;;;;;;;;;;;;;;15.21;59.58;100647.37;5323283;32;34587;-84
2023/05/14 08:02:53;;;;;;;;;;;;;;;16.10;55.92;100630.88;5336439;32;34398;-68
2023/05/14 08:05:55;;;;;;;;;;;;;;;15.72;57.34;100634.88;5326622;32;34950;-83
2023/05/14 08:08:57;;;;;;;;;;;;;;;15.55;57.94;100627.81;5341803;32;35138;-83
2023/05/14 08:11:59;;;;;;;;;;;;;;;15.01;61.17;100627.25;5312662;32;35781;-69
2023/05/14 08:15:01;;;;;;;;;;;;;;;16.09;57.63;100623.84;5321866;32;34803;-83
2023/05/14 08:18:03;;;;;;;;;;;;;;;15.41;59.42;100623.28;5313256;32;34704;-82
2023/05/14 08:21:06;;;;;;;;;;;;;;;16.90;54.62;100608.41;5326409;32;35180;-69
2023/05/14 08:24:08;;;;;;;;;;;;;;;16.00;57.30;100607.63;5337055;32;35275;-69
2023/05/14 08:27:09;;;;;;;;;;;;;;;16.27;56.36;100607.81;5326409;32;34374;-83
2023/05/14 08:30:12;;;;;;;;;;;;;;;15.25;59.97;100617.13;5336712;32;34758;-67
2023/05/14 08:33:14;;;;;;;;;;;;;;;16.09;57.54;100597.31;5310916;32;35671;-78
2023/05/14 08:36:16;;;;;;;;;;;;;;;15.61;59.74;100596.53;5311593;32;44833;-82
2023/05/14 08:39:17;;;;;;;;;;;;;;;15.39;60.41;100598.66;5311773;32;34414;-70
2023/05/14 08:42:20;;;;;;;;;;;;;;;15.79;59.90;100588.53;5312332;32;35372;-83
2023/05/14 08:45:32;;;;;;;;;;;;;;;15.76;61.17;100589.53;5321266;32;34321;-68
2023/05/14 08:48:35;;;;;;;;;;;;;;;16.33;57.88;100588.88;5291331;32;34971;-83
2023/05/14 08:51:37;;;;;;;;;;;;;;;16.35;58.08;100571.91;5336767;32;36916;-82
2023/05/14 08:54:39;;;;;;;;;;;;;;;15.88;61.66;100558.81;5311413;32;35116;-70
2023/05/14 08:57:41;;;;;;;;;;;;;;;15.54;61.73;100568.69;5317876;32;35338;-77
2023/05/14 09:00:43;;;;;;;;;;;;;;;16.36;59.90;100567.44;5329685;32;35785;-84
2023/05/14 09:03:45;;;;;;;;;;;;;;;16.60;59.02;100571.28;5326291;32;34983;-83
2023/05/14 09:06:47;;;;;;;;;;;;;;;16.04;62.25;100578.19;5321337;32;44686;-83
2023/05/14 09:09:52;;;;;;;;;;;;;;;16.85;59.26;100565.34;5324936;32;34958;-83
2023/05/14 09:12:55;;;;;;;;;;;;;;;15.78;62.23;100576.19;5316929;32;35260;-68
2023/05/14 09:15:56;;;;;;;;;;;;;;;15.98;62.11;100567.97;5324875;32;34807;-83
2023/05/14 09:18:58;;;;;;;;;;;;;;;16.40;60.51;100577.78;5316618;32;34444;-83
2023/05/14 09:22:00;;;;;;;;;;;;;;;16.69;58.11;100565.44;5335110;32;34966;-68
2023/05/14 09:25:03;;;;;;;;;;;;;;;16.15;61.08;100559.84;5326159;32;35368;-82
2023/05/14 09:28:07;;;;;;;;;;;;;;;16.23;61.44;100559.41;5321633;32;35336;-68
2023/05/14 09:31:09;;;;;;;;;;;;;;;16.17;60.23;100563.28;5311219;32;35151;-68
2023/05/14 09:34:12;;;;;;;;;;;;;;;15.88;62.82;100558.81;5332964;32;35478;-68
2023/05/14 09:37:14;;;;;;;;;;;;;;;16.35;61.32;100555.16;5291466;32;35541;-78
2023/05/14 09:40:17;;;;;;;;;;;;;;;16.40;62.50;100550.41;5315407;32;47776;-83
2023/05/14 09:43:19;;;;;;;;;;;;;;;16.16;62.31;100550.94;5319345;32;36575;-68
2023/05/14 09:46:22;;;;;;;;;;;;;;;15.72;65.45;100558.87;5312135;32;34710;-84
2023/05/14 09:49:24;;;;;;;;;;;;;;;16.60;60.10;100539.44;5293159;32;34923;-69
2023/05/14 09:52:26;;;;;;;;;;;;;;;16.77;58.93;100533.97;5324462;32;34523;-83
2023/05/14 09:55:28;;;;;;;;;;;;;;;16.41;59.96;100528.25;5335031;32;34904;-68
2023/05/14 09:58:30;;;;;;;;;;;;;;;16.49;60.94;100533.97;5317075;32;35367;-83
2023/05/14 10:01:32;;;;;;;;;;;;;;;16.32;61.19;100532.31;5328460;32;34587;-70
2023/05/14 10:04:34;;;;;;;;;;;;;;;16.24;60.86;100531.94;5331573;32;34490;-68
2023/05/14 10:07:47;;;;;;;;;;;;;;;15.88;63.53;100522.56;5316490;32;35723;-68
2023/05/14 10:10:49;;;;;;;;;;;;;;;16.15;62.33;100514.75;5334988;32;44470;-84
2023/05/14 10:13:57;;;;;;;;;;;;;;;16.07;63.81;100501.13;5310630;32;34315;-69
2023/05/14 10:16:59;;;;;;;;;;;;;;;15.97;65.53;100495.53;5320971;32;35357;-69
2023/05/14 10:20:01;;;;;;;;;;;;;;;15.80;65.32;100478.91;5326078;32;34890;-68
2023/05/14 10:23:03;;;;;;;;;;;;;;;15.75;65.76;100460.63;5312177;32;34621;-83
2023/05/14 10:26:05;;;;;;;;;;;;;;;15.17;69.40;100456.91;5321376;32;34775;-68
2023/05/14 10:29:11;;;;;;;;;;;;;;;16.00;65.31;100436.16;5325207;32;35559;-82
2023/05/14 10:32:13;;;;;;;;;;;;;;;15.54;67.76;100425.62;5319374;32;35281;-70
2023/05/14 10:35:16;;;;;;;;;;;;;;;15.04;69.66;100426.78;5308617;32;35437;-83
2023/05/14 10:38:20;;;;;;;;;;;;;;;15.31;68.64;100447.31;5325792;32;34924;-69
2023/05/14 10:41:23;;;;;;;;;;;;;;;16.78;63.03;100465.81;5316275;32;34989;-83
2023/05/14 10:44:25;;;;;;;;;;;;;;;15.90;64.09;100461.50;5328329;32;34744;-84
2023/05/14 10:47:27;;;;;;;;;;;;;;;16.04;64.77;100466.00;5319153;32;35550;-68
2023/05/14 10:50:29;;;;;;;;;;;;;;;15.93;64.60;100462.19;5305267;32;35275;-77
2023/05/14 10:53:41;;;;;;;;;;;;;;;16.42;62.25;100464.50;5321851;32;35218;-84
2023/05/14 10:56:44;;;;;;;;;;;;;;;16.72;60.57;100453.78;5324897;32;34617;-69
2023/05/14 10:59:47;;;;;;;;;;;;;;;16.30;62.87;100445.84;5314644;32;45474;-69
2023/05/14 11:02:50;;;;;;;;;;;;;;;16.48;62.52;100452.62;5331853;32;34627;-83
2023/05/14 11:05:52;;;;;;;;;;;;;;;16.64;60.08;100442.78;5311674;32;34335;-84
2023/05/14 11:08:54;;;;;;;;;;;;;;;16.64;61.86;100445.44;5324988;32;35793;-77
2023/05/14 11:11:56;;;;;;;;;;;;;;;17.00;60.00;100447.59;5311012;32;35054;-78
2023/05/14 11:14:59;;;;;;;;;;;;;;;16.50;62.54;100446.31;5337005;32;35480;-79
2023/05/14 11:18:01;;;;;;;;;;;;;;;15.88;64.87;100437.75;5324314;32;36019;-85
2023/05/14 11:21:03;;;;;;;;;;;;;;;15.34;67.93;100432.09;5327884;32;35800;-69
2023/05/14 11:24:06;;;;;;;;;;;;;;;15.98;66.82;100427.47;5321658;32;35709;-85
2023/05/14 11:27:09;;;;;;;;;;;;;;;16.79;62.71;100415.28;5311661;32;35711;-84
2023/05/14 11:30:11;;;;;;;;;;;;;;;16.60;64.29;100425.34;5321057;32;34129;-84
2023/05/14 11:33:14;;;;;;;;;;;;;;;15.99;65.33;100429.16;5309069;32;34026;-69
2023/05/14 11:36:16;;;;;;;;;;;;;;;16.31;66.86;100429.84;5310139;32;44691;-83
2023/05/14 11:39:18;;;;;;;;;;;;;;;16.17;67.17;100428.03;5325395;32;34604;-69
2023/05/14 11:42:21;;;;;;;;;;;;;;;15.58;66.88;100427.16;5314297;32;35644;-69
2023/05/14 11:45:24;;;;;;;;;;;;;;;16.09;67.10;100422.34;5323538;32;34909;-69
2023/05/14 11:48:26;;;;;;;;;;;;;;;15.92;69.53;100426.03;5294594;32;36069;-84
2023/05/14 11:51:28;;;;;;;;;;;;;;;15.80;68.45;100423.28;5321891;32;35637;-69
2023/05/14 11:54:30;;;;;;;;;;;;;;;16.30;64.22;100416.69;5312353;32;34611;-69
2023/05/14 11:57:32;;;;;;;;;;;;;;;15.56;67.83;100421.09;5335697;32;35503;-69
2023/05/14 12:00:34;;;;;;;;;;;;;;;15.54;70.81;100416.84;5326944;32;34467;-83
2023/05/14 12:03:36;;;;;;;;;;;;;;;16.00;67.52;100408.81;5336798;32;34737;-82
2023/05/14 12:06:39;;;;;;;;;;;;;;;15.64;68.87;100402.97;5321838;32;34851;-69
2023/05/14 12:09:42;;;;;;;;;;;;;;;15.70;71.48;100394.66;5313677;32;34815;-77
2023/05/14 12:12:46;;;;;;;;;;;;;;;15.33;70.07;100389.84;5324460;32;46481;-83
2023/05/14 12:15:58;;;;;;;;;;;;;;;15.87;68.94;100387.50;5325169;32;35644;-69
2023/05/14 12:19:00;;;;;;;;;;;;;;;15.56;69.78;100384.00;5320232;32;36265;-78
2023/05/14 12:22:02;;;;;;;;;;;;;;;15.08;72.22;100379.81;5314390;32;35849;-68
2023/05/14 12:25:09;;;;;;;;;;;;;;;15.10;72.92;100375.28;5335800;32;35293;-69
2023/05/14 12:28:17;;;;;;;;;;;;;;;15.06;72.57;100369.28;5333919;32;34338;-70
2023/05/14 12:31:26;;;;;;;;;;;;;;;15.36;71.79;100366.66;5311678;32;44805;-84
2023/05/14 12:34:28;;;;;;;;;;;;;;;15.21;73.23;100359.63;5326980;32;34871;-83
2023/05/14 12:37:30;;;;;;;;;;;;;;;16.01;68.89;100353.03;5311438;32;35108;-83
2023/05/14 12:40:32;;;;;;;;;;;;;;;15.34;71.03;100363.25;5328397;32;35600;-68
2023/05/14 12:43:34;;;;;;;;;;;;;;;15.98;68.99;100363.84;5334555;32;35271;-80
2023/05/14 12:46:36;;;;;;;;;;;;;;;16.62;67.07;100358.94;5321233;32;35762;-69
2023/05/14 12:49:38;;;;;;;;;;;;;;;15.54;70.74;100358.56;5319886;32;36853;-68
2023/05/14 12:52:40;;;;;;;;;;;;;;;16.23;70.03;100363.19;5325477;32;35679;-81
2023/05/14 12:55:42;;;;;;;;;;;;;;;16.66;66.99;100357.75;5335715;32;35453;-70
2023/05/14 12:58:45;;;;;;;;;;;;;;;16.33;69.65;100348.38;5323975;32;34337;-81
2023/05/14 13:01:47;;;;;;;;;;;;;;;15.34;73.56;100347.38;5314871;32;44467;-83
2023/05/14 13:04:49;;;;;;;;;;;;;;;15.94;71.24;100325.22;5335171;32;35724;-83
2023/05/14 13:07:51;;;;;;;;;;;;;;;15.41;73.89;100331.97;5311408;32;34373;-68
2023/05/14 13:10:53;;;;;;;;;;;;;;;16.41;67.74;100316.88;5322456;32;34481;-69
2023/05/14 13:13:55;;;;;;;;;;;;;;;15.89;71.64;100322.00;5312660;32;35869;-75
2023/05/14 13:16:57;;;;;;;;;;;;;;;15.36;74.68;100318.13;5334873;32;34949;-69
2023/05/14 13:19:59;;;;;;;;;;;;;;;15.47;74.30;100313.06;5315008;32;34328;-69
2023/05/14 13:23:01;;;;;;;;;;;;;;;15.50;73.41;100312.00;5325858;32;35373;-68
2023/05/14 13:26:03;;;;;;;;;;;;;;;15.76;74.02;100310.44;5320652;32;37153;-70
2023/05/14 13:29:05;;;;;;;;;;;;;;;15.66;73.51;100305.72;5326268;32;36143;-81
2023/05/14 13:32:07;;;;;;;;;;;;;;;14.54;77.99;100298.19;5333015;32;34437;-70
2023/05/14 13:35:09;;;;;;;;;;;;;;;15.00;77.92;100294.69;5308638;32;34294;-77
2023/05/14 13:38:11;;;;;;;;;;;;;;;15.74;73.98;100286.69;5325395;32;34778;-82
2023/05/14 13:41:16;;;;;;;;;;;;;;;14.73;78.56;100289.22;5325206;32;45534;-69
2023/05/14 13:44:18;;;;;;;;;;;;;;;15.47;77.20;100273.34;5325776;32;35079;-83
2023/05/14 13:47:20;;;;;;;;;;;;;;;15.12;76.75;100270.16;5323504;32;35808;-84
2023/05/14 13:50:22;;;;;;;;;;;;;;;14.74;79.30;100267.09;5316774;32;35153;-68
2023/05/14 13:53:24;;;;;;;;;;;;;;;14.76;79.61;100267.91;5321953;32;34324;-83
2023/05/14 13:56:26;;;;;;;;;;;;;;;15.14;76.92;100258.53;5324329;32;34672;-69
2023/05/14 13:59:31;;;;;;;;;;;;;;;14.71;81.56;100262.00;5334849;32;34973;-69
2023/05/14 14:02:32;;;;;;;;;;;;;;;15.75;75.85;100246.00;5325750;32;35294;-79
2023/05/14 14:05:35;;;;;;;;;;;;;;;15.54;75.86;100242.88;5311026;32;36402;-82
2023/05/14 14:08:37;;;;;;;;;;;;;;;14.87;81.62;100250.41;5321366;32;38111;-84
2023/05/14 14:11:39;;;;;;;;;;;;;;;15.22;78.40;100247.50;5324428;32;34482;-67
2023/05/14 14:14:41;;;;;;;;;;;;;;;15.70;75.31;100242.78;5335458;32;35086;-68
2023/05/14 14:17:43;;;;;;;;;;;;;;;15.43;76.83;100232.06;5323539;32;35068;-69
2023/05/14 14:20:45;;;;;;;;;;;;;;;15.61;75.77;100230.09;5320002;32;42583;-82
2023/05/14 14:23:47;;;;;;;;;;;;;;;15.54;76.06;100240.22;5326412;32;34623;-84
2023/05/14 14:26:49;;;;;;;;;;;;;;;16.26;72.61;100240.97;5324135;32;34707;-69
2023/05/14 14:29:51;;;;;;;;;;;;;;;15.58;76.66;100235.56;5334448;32;34770;-69
2023/05/14 14:32:53;;;;;;;;;;;;;;;15.37;76.62;100238.59;5323461;32;35530;-68
2023/05/14 14:35:55;;;;;;;;;;;;;;;15.24;80.37;100239.44;5300554;32;34956;-67
2023/05/14 14:38:57;;;;;;;;;;;;;;;16.01;75.03;100236.41;5328910;32;35144;-68
2023/05/14 14:41:59;;;;;;;;;;;;;;;16.25;73.08;100236.63;5319439;32;35368;-67
2023/05/14 14:45:01;;;;;;;;;;;;;;;16.46;72.19;100229.91;5324235;32;35563;-69
2023/05/14 14:48:22;;;;;;;;;;;;;;;15.82;75.42;100231.41;5307284;32;36960;-83
2023/05/14 14:51:24;;;;;;;;;;;;;;;15.98;75.67;100223.37;5329705;32;46808;-68
2023/05/14 14:54:26;;;;;;;;;;;;;;;14.57;81.42;100212.56;5311978;32;34786;-84
2023/05/14 14:57:28;;;;;;;;;;;;;;;15.29;77.16;100222.34;5334014;32;35475;-69
2023/05/14 15:00:30;;;;;;;;;;;;;;;15.07;77.98;100222.81;5324691;32;34785;-76
2023/05/14 15:03:32;;;;;;;;;;;;;;;14.78;80.19;100221.03;5328378;32;35853;-68
2023/05/14 15:06:34;;;;;;;;;;;;;;;14.79;80.47;100214.78;5333652;32;34905;-68
2023/05/14 15:09:36;;;;;;;;;;;;;;;14.43;81.56;100202.75;5331950;32;34823;-83
2023/05/14 15:12:38;;;;;;;;;;;;;;;14.87;81.36;100196.66;5335764;32;34442;-84
2023/05/14 15:15:40;;;;;;;;;;;;;;;13.48;88.20;100215.12;5302112;32;34340;-68
2023/05/14 15:18:42;;;;;;;;;;;;;;;13.76;86.88;100195.97;5337212;32;34415;-63
2023/05/14 15:21:44;;;;;;;;;;;;;;;14.13;83.88;100192.16;5326772;32;35090;-74
2023/05/14 15:24:46;;;;;;;;;;;;;;;13.65;84.83;100175.44;5314580;32;44445;-65
2023/05/14 15:27:49;;;;;;;;;;;;;;;13.85;84.84;100181.41;5333505;32;36165;-73
2023/05/14 15:30:50;;;;;;;;;;;;;;;14.01;84.49;100179.63;5324980;32;34255;-65
2023/05/14 15:33:54;;;;;;;;;;;;;;;14.08;84.05;100168.59;5319235;32;34999;-66
2023/05/14 15:36:56;;;;;;;;;;;;;;;13.81;84.56;100175.47;5288235;32;35739;-72